createdAt,value
2019-02-03T00:00:12.346Z,13.77
2019-02-03T00:02:43.336Z,18.47
2019-02-03T00:05:14.831Z,18.57
2019-02-03T00:07:45.046Z,14.90
2019-02-03T00:10:15.292Z,17.60
2019-02-03T00:12:45.611Z,14.33
2019-02-03T00:15:15.908Z,15.27
2019-02-03T00:17:46.247Z,16.27
2019-02-03T00:20:16.658Z,16.60
2019-02-03T00:22:47.129Z,16.10
2019-02-03T00:25:17.393Z,15.67
2019-02-03T00:27:47.702Z,15.23
2019-02-03T00:30:18.145Z,14.00
2019-02-03T00:32:51.511Z,17.17
2019-02-03T00:35:20.479Z,13.80
2019-02-03T00:37:50.800Z,14.30
2019-02-03T00:40:21.433Z,15.17
2019-02-03T00:42:51.873Z,18.13
2019-02-03T00:45:22.073Z,24.50
2019-02-03T00:47:52.213Z,30.67
2019-02-03T00:50:22.425Z,28.63
2019-02-03T00:52:52.556Z,28.20
2019-02-03T00:55:22.757Z,32.67
2019-02-03T00:57:57.902Z,29.73
2019-02-03T01:00:28.246Z,34.30
2019-02-03T01:02:58.380Z,31.67
2019-02-03T01:05:28.668Z,29.87
2019-02-03T01:07:59.126Z,29.07
2019-02-03T01:10:29.709Z,31.70
2019-02-03T01:12:59.905Z,30.63
2019-02-03T01:15:32.438Z,28.87
2019-02-03T01:18:03.414Z,26.20
2019-02-03T01:20:33.701Z,26.17
2019-02-03T01:23:04.512Z,25.37
2019-02-03T01:25:35.003Z,22.47
2019-02-03T01:28:05.935Z,25.23
2019-02-03T01:30:36.315Z,27.50
2019-02-03T01:33:06.658Z,25.60
2019-02-03T01:35:37.468Z,25.53
2019-02-03T01:38:07.980Z,31.27
2019-02-03T01:40:38.145Z,30.10
2019-02-03T01:43:08.308Z,30.70
2019-02-03T01:45:38.724Z,32.20
2019-02-03T01:48:09.444Z,30.50
2019-02-03T01:50:39.822Z,34.63
2019-02-03T01:53:10.076Z,37.13
2019-02-03T01:55:40.222Z,35.33
2019-02-03T01:58:10.335Z,35.93
2019-02-03T02:00:41.270Z,32.30
2019-02-03T02:03:11.505Z,32.87
2019-02-03T02:05:41.726Z,32.33
2019-02-03T02:08:11.950Z,35.90
2019-02-03T02:10:42.309Z,31.50
2019-02-03T02:13:12.443Z,32.30
2019-02-03T02:15:42.633Z,31.43
2019-02-03T02:18:13.080Z,34.10
2019-02-03T02:20:43.334Z,27.63
2019-02-03T02:23:13.579Z,32.53
2019-02-03T02:25:44.024Z,24.17
2019-02-03T02:28:14.460Z,25.17
2019-02-03T02:30:44.888Z,25.70
2019-02-03T02:33:15.056Z,29.27
2019-02-03T02:35:45.414Z,25.23
2019-02-03T02:38:15.527Z,24.10
2019-02-03T02:40:45.752Z,24.37
2019-02-03T02:43:15.960Z,22.87
2019-02-03T02:45:46.146Z,24.03
2019-02-03T02:48:16.519Z,21.27
2019-02-03T02:50:49.540Z,21.80
2019-02-03T02:53:19.873Z,22.33
2019-02-03T02:55:50.631Z,22.20
2019-02-03T02:58:20.981Z,24.20
2019-02-03T03:00:51.296Z,22.93
2019-02-03T03:03:21.451Z,22.67
2019-02-03T03:05:53.325Z,22.67
2019-02-03T03:08:23.621Z,25.43
2019-02-03T03:10:53.871Z,23.93
2019-02-03T03:13:24.313Z,19.27
2019-02-03T03:15:54.451Z,25.50
2019-02-03T03:18:24.601Z,24.67
2019-02-03T03:20:54.770Z,24.90
2019-02-03T03:23:24.984Z,23.87
2019-02-03T03:25:55.347Z,23.77
2019-02-03T03:28:25.595Z,25.67
2019-02-03T03:30:56.383Z,23.47
2019-02-03T03:33:26.890Z,29.27
2019-02-03T03:35:57.056Z,21.93
2019-02-03T03:38:32.462Z,22.30
2019-02-03T03:41:03.126Z,24.40
2019-02-03T03:43:33.506Z,20.97
2019-02-03T03:46:06.501Z,25.07
2019-02-03T03:48:35.717Z,21.50
2019-02-03T03:51:05.984Z,21.50
2019-02-03T03:53:36.218Z,23.90
2019-02-03T03:56:06.510Z,25.53
2019-02-03T03:58:36.656Z,20.23
2019-02-03T04:01:07.526Z,23.67
2019-02-03T04:03:37.816Z,18.43
2019-02-03T04:06:08.148Z,20.40
2019-02-03T04:08:45.273Z,24.27
2019-02-03T04:11:10.409Z,23.40
2019-02-03T04:13:40.645Z,25.97
2019-02-03T04:16:10.853Z,26.73
2019-02-03T04:18:40.974Z,24.20
2019-02-03T04:21:11.122Z,24.47
2019-02-03T04:23:41.381Z,26.47
2019-02-03T04:26:11.725Z,29.13
2019-02-03T04:28:42.035Z,28.15
2019-02-03T04:31:12.667Z,25.57
2019-02-03T04:33:43.028Z,24.67
2019-02-03T04:36:13.270Z,27.10
2019-02-03T04:38:43.626Z,26.73
2019-02-03T04:41:13.892Z,30.30
2019-02-03T04:43:44.146Z,26.33
2019-02-03T04:46:15.113Z,25.07
2019-02-03T04:48:45.227Z,24.83
2019-02-03T04:51:15.743Z,23.80
2019-02-03T04:53:45.904Z,23.83
2019-02-03T04:56:16.123Z,25.93
2019-02-03T04:58:46.853Z,23.33
2019-02-03T05:01:17.292Z,23.18
2019-02-03T05:03:47.474Z,24.30
2019-02-03T05:06:17.677Z,23.50
2019-02-03T05:08:48.192Z,19.50
2019-02-03T05:11:18.843Z,22.00
2019-02-03T05:13:49.093Z,23.52
2019-02-03T05:16:19.437Z,24.37
2019-02-03T05:18:49.621Z,25.37
2019-02-03T05:21:20.129Z,21.03
2019-02-03T05:23:50.606Z,20.50
2019-02-03T05:26:21.062Z,22.50
2019-02-03T05:28:51.292Z,20.40
2019-02-03T05:31:22.468Z,22.17
2019-02-03T05:33:52.947Z,21.57
2019-02-03T05:36:23.183Z,21.87
2019-02-03T05:38:55.338Z,19.30
2019-02-03T05:41:25.968Z,21.73
2019-02-03T05:43:56.185Z,21.03
2019-02-03T05:46:26.399Z,20.70
2019-02-03T05:48:56.582Z,22.03
2019-02-03T05:51:26.882Z,18.97
2019-02-03T05:53:57.041Z,22.33
2019-02-03T05:56:27.555Z,22.73
2019-02-03T05:58:57.733Z,20.60
2019-02-03T06:01:27.914Z,67.70
2019-02-03T06:03:58.074Z,33.70
2019-02-03T06:06:28.335Z,30.90
2019-02-03T06:08:58.480Z,28.37
2019-02-03T06:11:28.649Z,27.10
2019-02-03T06:13:58.888Z,28.60
2019-02-03T06:16:29.163Z,23.50
2019-02-03T06:18:59.283Z,23.80
2019-02-03T06:21:29.416Z,25.63
2019-02-03T06:23:59.633Z,25.17
2019-02-03T06:26:30.133Z,25.53
2019-02-03T06:29:00.994Z,21.60
2019-02-03T06:31:31.191Z,22.40
2019-02-03T06:34:01.370Z,22.77
2019-02-03T06:36:31.726Z,25.20
2019-02-03T06:39:01.954Z,23.23
2019-02-03T06:41:32.878Z,23.97
2019-02-03T06:44:03.138Z,22.90
2019-02-03T06:46:54.996Z,38.63
2019-02-03T06:49:42.279Z,24.27
2019-02-03T06:52:12.554Z,24.20
2019-02-03T06:54:42.867Z,25.17
2019-02-03T06:57:13.201Z,27.73
2019-02-03T06:59:50.636Z,27.65
2019-02-03T07:02:15.449Z,26.00
2019-02-03T07:04:45.682Z,30.10
2019-02-03T07:07:15.808Z,26.80
2019-02-03T07:09:46.050Z,28.77
2019-02-03T07:12:16.302Z,30.03
2019-02-03T07:14:46.518Z,25.20
2019-02-03T07:17:16.770Z,28.53
2019-02-03T07:19:47.059Z,25.80
2019-02-03T07:22:17.452Z,24.63
2019-02-03T07:24:48.148Z,29.33
2019-02-03T07:27:18.604Z,24.20
2019-02-03T07:29:49.318Z,29.90
2019-02-03T07:32:19.642Z,29.60
2019-02-03T07:34:50.116Z,28.53
2019-02-03T07:37:20.319Z,30.50
2019-02-03T07:39:50.549Z,34.70
2019-02-03T07:42:20.786Z,30.93
2019-02-03T07:44:51.500Z,27.97
2019-02-03T07:47:22.177Z,28.70
2019-02-03T07:49:52.871Z,29.00
2019-02-03T07:52:23.576Z,31.70
2019-02-03T07:54:54.319Z,29.83
2019-02-03T07:57:24.727Z,35.00
2019-02-03T07:59:55.177Z,30.50
2019-02-03T08:02:26.934Z,30.87
2019-02-03T08:04:57.676Z,35.57
2019-02-03T08:07:28.251Z,36.07
2019-02-03T08:09:58.806Z,36.87
2019-02-03T08:12:29.129Z,32.13
2019-02-03T08:14:59.902Z,35.75
2019-02-03T08:17:31.999Z,31.90
2019-02-03T08:20:02.599Z,33.90
2019-02-03T08:22:32.867Z,33.57
2019-02-03T08:25:03.533Z,34.93
2019-02-03T08:27:35.080Z,31.10
2019-02-03T08:30:07.001Z,37.00
2019-02-03T08:32:37.475Z,35.53
2019-02-03T08:35:08.643Z,36.73
2019-02-03T08:37:39.438Z,38.77
2019-02-03T08:40:13.781Z,41.07
2019-02-03T08:42:44.645Z,37.17
2019-02-03T08:45:17.830Z,38.83
2019-02-03T08:47:49.204Z,40.60
2019-02-03T08:50:21.312Z,35.33
2019-02-03T08:52:51.748Z,43.33
2019-02-03T08:55:24.732Z,33.20
2019-02-03T08:57:57.713Z,37.10
2019-02-03T09:00:30.744Z,37.37
2019-02-03T09:03:01.249Z,36.97
2019-02-03T09:05:32.102Z,37.80
2019-02-03T09:08:02.546Z,34.40
2019-02-03T09:10:32.779Z,34.10
2019-02-03T09:13:02.988Z,31.20
2019-02-03T09:15:33.344Z,30.30
2019-02-03T09:18:04.368Z,33.47
2019-02-03T09:20:34.746Z,37.37
2019-02-03T09:23:05.768Z,42.03
2019-02-03T09:25:35.964Z,35.13
2019-02-03T09:28:06.178Z,41.90
2019-02-03T09:30:37.155Z,43.23
2019-02-03T09:33:07.752Z,40.87
2019-02-03T09:35:38.354Z,43.30
2019-02-03T09:38:08.729Z,46.13
2019-02-03T09:40:40.109Z,44.53
2019-02-03T09:43:10.368Z,45.87
2019-02-03T09:45:40.661Z,43.97
2019-02-03T09:48:11.278Z,54.25
2019-02-03T09:50:41.749Z,53.70
2019-02-03T09:53:11.957Z,57.50
2019-02-03T09:55:42.196Z,48.20
2019-02-03T09:58:13.302Z,43.10
2019-02-03T10:00:43.653Z,48.80
2019-02-03T10:03:13.853Z,48.47
2019-02-03T10:05:44.533Z,51.27
2019-02-03T10:08:16.039Z,42.07
2019-02-03T10:10:47.036Z,40.45
2019-02-03T10:13:17.337Z,43.30
2019-02-03T10:15:47.770Z,41.83
2019-02-03T10:18:18.001Z,45.70
2019-02-03T10:20:48.273Z,35.07
2019-02-03T10:23:18.941Z,39.80
2019-02-03T10:25:49.452Z,45.20
2019-02-03T10:28:19.623Z,37.53
2019-02-03T10:30:49.937Z,36.83
2019-02-03T10:33:20.547Z,38.47
2019-02-03T10:35:51.219Z,45.60
2019-02-03T10:38:21.519Z,40.83
2019-02-03T10:40:52.315Z,40.30
2019-02-03T10:43:22.690Z,37.30
2019-02-03T10:45:52.879Z,37.10
2019-02-03T10:48:23.324Z,32.97
2019-02-03T10:50:54.037Z,39.63
2019-02-03T10:53:24.432Z,35.10
2019-02-03T10:55:55.273Z,33.43
2019-02-03T10:58:25.986Z,34.90
2019-02-03T11:00:56.714Z,39.70
2019-02-03T11:03:27.421Z,31.27
2019-02-03T11:05:59.416Z,37.10
2019-02-03T11:08:29.875Z,30.17
2019-02-03T11:11:00.457Z,38.88
2019-02-03T11:13:30.872Z,31.17
2019-02-03T11:16:01.931Z,33.63
2019-02-03T11:18:32.347Z,31.27
2019-02-03T11:21:02.797Z,37.50
2019-02-03T11:23:33.295Z,35.97
2019-02-03T11:26:03.928Z,31.13
2019-02-03T11:28:34.832Z,174.73
2019-02-03T11:31:05.479Z,61.30
2019-02-03T11:33:36.190Z,40.10
2019-02-03T11:36:06.393Z,49.53
2019-02-03T11:38:36.832Z,51.83
2019-02-03T11:41:07.614Z,39.37
2019-02-03T11:43:38.070Z,33.50
2019-02-03T11:46:08.456Z,32.17
2019-02-03T11:48:38.773Z,29.50
2019-02-03T11:51:09.622Z,32.70
2019-02-03T11:53:40.525Z,23.60
2019-02-03T11:56:11.141Z,42.87
2019-02-03T11:58:41.544Z,41.20
2019-02-03T12:01:12.758Z,28.67
2019-02-03T12:03:44.284Z,21.43
2019-02-03T12:06:14.774Z,21.57
2019-02-03T12:08:45.727Z,23.07
2019-02-03T12:11:16.044Z,31.57
2019-02-03T12:13:46.554Z,21.80
2019-02-03T12:16:17.191Z,20.53
2019-02-03T12:18:47.760Z,27.40
2019-02-03T12:21:18.725Z,21.87
2019-02-03T12:23:49.396Z,26.43
2019-02-03T12:26:19.872Z,25.37
2019-02-03T12:28:50.402Z,26.20
2019-02-03T12:31:20.742Z,27.57
2019-02-03T12:33:55.327Z,30.43
2019-02-03T12:36:25.969Z,30.00
2019-02-03T12:38:58.315Z,26.00
2019-02-03T12:41:28.543Z,25.30
2019-02-03T12:43:59.031Z,26.67
2019-02-03T12:46:29.489Z,41.73
2019-02-03T12:48:59.885Z,38.97
2019-02-03T12:51:30.172Z,45.40
2019-02-03T12:54:01.892Z,27.23
2019-02-03T12:56:32.319Z,27.80
2019-02-03T12:59:02.773Z,28.20
2019-02-03T13:01:33.088Z,22.73
2019-02-03T13:04:03.834Z,28.27
2019-02-03T13:06:34.109Z,24.20
2019-02-03T13:09:09.407Z,28.43
2019-02-03T13:11:40.215Z,24.53
2019-02-03T13:14:10.858Z,23.07
2019-02-03T13:16:41.271Z,24.50
2019-02-03T13:19:11.730Z,23.43
2019-02-03T13:21:42.055Z,26.90
2019-02-03T13:24:13.991Z,22.67
2019-02-03T13:26:44.746Z,23.83
2019-02-03T13:29:15.255Z,18.53
2019-02-03T13:31:45.791Z,20.87
2019-02-03T13:34:16.826Z,20.55
2019-02-03T13:36:47.190Z,23.83
2019-02-03T13:39:17.699Z,26.33
2019-02-03T13:41:48.275Z,24.87
2019-02-03T13:44:21.019Z,19.17
2019-02-03T13:46:52.159Z,20.80
2019-02-03T13:49:23.426Z,18.85
2019-02-03T13:51:54.156Z,25.80
2019-02-03T13:54:24.539Z,23.37
2019-02-03T13:56:55.373Z,25.27
2019-02-03T13:59:25.817Z,24.13
2019-02-03T14:01:56.318Z,27.20
2019-02-03T14:04:27.354Z,26.87
2019-02-03T14:06:58.647Z,21.97
2019-02-03T14:09:29.750Z,29.10
2019-02-03T14:12:00.411Z,29.83
2019-02-03T14:14:31.148Z,27.90
2019-02-03T14:17:03.183Z,35.87
2019-02-03T14:19:33.882Z,30.03
2019-02-03T14:22:05.317Z,29.23
2019-02-03T14:24:36.244Z,22.00
2019-02-03T14:27:06.851Z,24.60
2019-02-03T14:29:37.872Z,37.03
2019-02-03T14:32:08.428Z,44.37
2019-02-03T14:34:39.604Z,27.70
2019-02-03T14:37:10.517Z,28.70
2019-02-03T14:39:41.362Z,24.37
2019-02-03T14:42:11.897Z,24.87
2019-02-03T14:44:43.140Z,25.37
2019-02-03T14:47:14.235Z,26.80
2019-02-03T14:49:44.798Z,26.90
2019-02-03T14:52:15.584Z,28.90
2019-02-03T14:54:46.030Z,24.80
2019-02-03T14:57:16.337Z,23.83
2019-02-03T14:59:47.252Z,29.75
2019-02-03T15:02:18.354Z,33.40
2019-02-03T15:04:49.172Z,24.17
2019-02-03T15:07:19.710Z,75.52
2019-02-03T15:09:50.998Z,29.72
2019-02-03T15:12:21.901Z,29.20
2019-02-03T15:14:52.478Z,25.20
2019-02-03T15:17:22.911Z,23.97
2019-02-03T15:19:53.760Z,26.40
2019-02-03T15:22:25.566Z,27.57
2019-02-03T15:24:56.056Z,31.47
2019-02-03T15:27:26.977Z,23.23
2019-02-03T15:29:57.996Z,24.47
2019-02-03T15:32:28.541Z,29.87
2019-02-03T15:34:59.195Z,26.93
2019-02-03T15:37:29.735Z,26.63
2019-02-03T15:40:00.817Z,22.53
2019-02-03T15:42:31.541Z,22.50
2019-02-03T15:45:02.724Z,24.45
2019-02-03T15:47:33.499Z,23.83
2019-02-03T15:50:04.681Z,25.47
2019-02-03T15:52:35.122Z,28.70
2019-02-03T15:55:06.244Z,23.63
2019-02-03T15:57:36.917Z,24.87
2019-02-03T16:00:13.480Z,23.10
2019-02-03T16:02:44.300Z,22.50
2019-02-03T16:05:15.138Z,27.82
2019-02-03T16:07:45.781Z,30.50
2019-02-03T16:10:19.057Z,29.53
2019-02-03T16:12:50.340Z,24.83
2019-02-03T16:15:21.165Z,25.90
2019-02-03T16:17:51.589Z,27.60
2019-02-03T16:20:24.042Z,23.35
2019-02-03T16:22:54.914Z,24.93
2019-02-03T16:25:25.466Z,25.57
2019-02-03T16:27:56.168Z,23.00
2019-02-03T16:30:30.785Z,25.47
2019-02-03T16:33:01.877Z,32.47
2019-02-03T16:35:33.016Z,38.70
2019-02-03T16:38:04.118Z,29.43
2019-02-03T16:40:35.168Z,30.70
2019-02-03T16:43:06.301Z,23.33
2019-02-03T16:45:37.432Z,28.03
2019-02-03T16:48:08.174Z,30.90
2019-02-03T16:50:39.012Z,31.43
2019-02-03T16:53:10.759Z,30.20
2019-02-03T16:55:43.002Z,31.40
2019-02-03T16:58:13.693Z,27.70
2019-02-03T17:00:45.193Z,26.53
2019-02-03T17:03:15.965Z,25.90
2019-02-03T17:05:46.920Z,24.47
2019-02-03T17:08:17.595Z,27.93
2019-02-03T17:10:48.508Z,27.40
2019-02-03T17:13:19.269Z,36.50
2019-02-03T17:16:12.121Z,31.53
2019-02-03T17:18:42.909Z,22.48
2019-02-03T17:21:13.450Z,25.47
2019-02-03T17:23:44.220Z,28.60
2019-02-03T17:26:16.011Z,26.10
2019-02-03T17:28:46.746Z,23.42
2019-02-03T17:31:17.496Z,28.37
2019-02-03T17:33:48.164Z,28.13
2019-02-03T17:36:19.065Z,24.93
2019-02-03T17:38:49.680Z,24.37
2019-02-03T17:41:20.402Z,30.17
2019-02-03T17:43:50.939Z,24.87
2019-02-03T17:46:21.482Z,27.33
2019-02-03T17:48:53.206Z,26.07
2019-02-03T17:51:24.030Z,25.60
2019-02-03T17:53:55.556Z,22.70
2019-02-03T17:56:26.277Z,28.20
2019-02-03T17:58:56.772Z,29.52
2019-02-03T18:01:28.327Z,25.70
2019-02-03T18:03:58.679Z,20.67
2019-02-03T18:06:29.746Z,20.97
2019-02-03T18:09:00.116Z,24.77
2019-02-03T18:11:35.905Z,22.20
2019-02-03T18:14:03.427Z,36.57
2019-02-03T18:16:34.382Z,19.33
2019-02-03T18:19:05.141Z,23.00
2019-02-03T18:21:36.336Z,25.17
2019-02-03T18:24:07.450Z,18.90
2019-02-03T18:26:38.099Z,25.73
2019-02-03T18:29:08.865Z,19.67
2019-02-03T18:31:39.336Z,25.03
2019-02-03T18:34:10.085Z,26.27
2019-02-03T18:36:40.916Z,23.40
2019-02-03T18:39:12.118Z,23.20
2019-02-03T18:41:43.980Z,19.77
2019-02-03T18:44:14.460Z,20.00
2019-02-03T18:46:45.337Z,19.30
2019-02-03T18:49:15.868Z,18.77
2019-02-03T18:51:46.776Z,15.03
2019-02-03T18:54:17.231Z,13.73
2019-02-03T18:56:47.601Z,15.77
2019-02-03T18:59:18.501Z,17.30
2019-02-03T19:01:48.958Z,22.20
2019-02-03T19:04:19.961Z,16.67
2019-02-03T19:06:50.727Z,14.47
2019-02-03T19:09:21.272Z,13.37
2019-02-03T19:11:51.837Z,15.20
2019-02-03T19:14:22.352Z,18.47
2019-02-03T19:16:53.444Z,16.17
2019-02-03T19:19:24.045Z,15.17
2019-02-03T19:21:54.409Z,16.53
2019-02-03T19:24:25.241Z,16.27
2019-02-03T19:26:55.559Z,23.57
2019-02-03T19:29:26.696Z,17.07
2019-02-03T19:31:56.928Z,15.65
2019-02-03T19:34:27.551Z,22.17
2019-02-03T19:37:05.191Z,22.23
2019-02-03T19:39:30.459Z,16.40
2019-02-03T19:42:01.577Z,19.97
2019-02-03T19:44:31.946Z,19.70
2019-02-03T19:47:02.692Z,15.10
2019-02-03T19:49:33.276Z,14.90
2019-02-03T19:52:03.822Z,18.53
2019-02-03T19:54:35.018Z,12.67
2019-02-03T19:57:05.546Z,13.97
2019-02-03T19:59:46.313Z,10.57
2019-02-03T20:02:10.953Z,16.23
2019-02-03T20:04:41.192Z,13.20
2019-02-03T20:07:12.366Z,12.80
2019-02-03T20:09:43.048Z,8.47
2019-02-03T20:12:13.544Z,16.20
2019-02-03T20:14:43.906Z,11.03
2019-02-03T20:17:14.568Z,12.13
2019-02-03T20:19:46.437Z,12.77
2019-02-03T20:22:17.592Z,11.57
2019-02-03T20:24:47.864Z,17.83
2019-02-03T20:27:18.902Z,13.10
2019-02-03T20:29:49.559Z,14.70
2019-02-03T20:32:20.267Z,14.63
2019-02-03T20:34:50.893Z,13.70
2019-02-03T20:37:21.339Z,15.65
2019-02-03T20:40:01.727Z,10.73
2019-02-03T20:42:23.913Z,14.78
2019-02-03T20:44:54.954Z,12.07
2019-02-03T20:47:25.456Z,7.97
2019-02-03T20:49:55.957Z,21.20
2019-02-03T20:52:26.470Z,10.57
2019-02-03T20:54:57.272Z,9.57
2019-02-03T20:57:27.765Z,8.00
2019-02-03T20:59:58.048Z,7.47
2019-02-03T21:02:28.537Z,9.53
2019-02-03T21:04:59.145Z,9.60
2019-02-03T21:07:29.570Z,8.07
2019-02-03T21:10:00.300Z,8.03
2019-02-03T21:12:30.780Z,8.93
2019-02-03T21:15:01.351Z,9.40
2019-02-03T21:17:32.947Z,10.60
2019-02-03T21:20:03.665Z,8.60
2019-02-03T21:22:34.020Z,10.63
2019-02-03T21:25:04.837Z,10.17
2019-02-03T21:27:35.398Z,9.23
2019-02-03T21:30:09.118Z,8.30
2019-02-03T21:32:39.395Z,7.80
2019-02-03T21:35:10.409Z,8.70
2019-02-03T21:37:40.965Z,7.90
2019-02-03T21:40:20.558Z,9.90
2019-02-03T21:42:50.911Z,14.03
2019-02-03T21:45:21.861Z,9.00
2019-02-03T21:47:52.498Z,9.60
2019-02-03T21:50:25.276Z,7.47
2019-02-03T21:52:55.863Z,11.60
2019-02-03T21:55:25.975Z,5.77
2019-02-03T21:57:56.412Z,7.50
2019-02-03T22:00:29.083Z,7.43
2019-02-03T22:02:59.268Z,8.50
2019-02-03T22:05:30.303Z,9.23
2019-02-03T22:08:00.668Z,8.17
2019-02-03T22:10:35.692Z,7.83
2019-02-03T22:13:06.771Z,8.13
2019-02-03T22:15:37.748Z,7.35
2019-02-03T22:18:08.282Z,9.80
2019-02-03T22:20:38.701Z,5.80
2019-02-03T22:23:08.833Z,8.10
2019-02-03T22:25:39.261Z,6.60
2019-02-03T22:28:09.713Z,5.37
2019-02-03T22:30:41.107Z,8.63
2019-02-03T22:33:11.290Z,7.97
2019-02-03T22:35:41.611Z,9.80
2019-02-03T22:38:13.452Z,7.13
2019-02-03T22:40:43.926Z,5.83
2019-02-03T22:43:14.191Z,6.60
2019-02-03T22:45:44.613Z,7.87
2019-02-03T22:48:14.773Z,5.20
2019-02-03T22:50:45.466Z,12.23
2019-02-03T22:53:15.952Z,8.40
2019-02-03T22:55:46.165Z,7.77
2019-02-03T22:58:16.415Z,6.00
2019-02-03T23:01:18.416Z,7.17
2019-02-03T23:03:54.585Z,7.30
2019-02-03T23:06:27.799Z,4.53
2019-02-03T23:09:01.174Z,7.40
2019-02-03T23:11:31.395Z,5.70
2019-02-03T23:14:04.504Z,6.00
2019-02-03T23:16:33.750Z,5.33
2019-02-03T23:19:04.495Z,6.07
2019-02-03T23:21:35.629Z,9.98
2019-02-03T23:24:06.005Z,5.93
2019-02-03T23:26:37.420Z,7.27
2019-02-03T23:29:07.714Z,6.50
2019-02-03T23:31:37.950Z,5.27
2019-02-03T23:34:08.803Z,6.93
2019-02-03T23:36:39.113Z,5.95
2019-02-03T23:39:23.086Z,5.10
2019-02-03T23:41:53.246Z,6.87
2019-02-03T23:44:23.877Z,5.10
2019-02-03T23:46:54.521Z,7.67
2019-02-03T23:49:24.691Z,5.53
2019-02-03T23:51:55.215Z,5.10
2019-02-03T23:54:25.870Z,7.40
2019-02-03T23:56:56.152Z,6.40
2019-02-03T23:59:26.625Z,4.20
